Time;durP1;ratioP1;P1;durP2;ratioP2;P2;SDS_P1;SDS_P2;PMS_P1;PMS_P2;Temp;Humidity;BMP_temperature;BMP_pressure;BME280_temperature;BME280_humidity;BME280_pressure;Samples;Min_cycle;Max_cycle;Signal;HPM_P1;HPM_P2
2021/08/22 00:00:12;;;;;;;10.70;9.70;;;18.50;99.90;;;;;;4999457;28;20449;-62
2021/08/22 00:02:39;;;;;;;11.20;9.57;;;18.50;99.90;;;;;;4984356;28;20418;-61
2021/08/22 00:05:07;;;;;;;10.57;9.50;;;18.50;99.90;;;;;;5007326;28;20441;-60
2021/08/22 00:07:34;;;;;;;11.00;10.00;;;18.50;99.90;;;;;;4985550;28;20458;-61
2021/08/22 00:10:02;;;;;;;12.27;9.07;;;18.40;99.90;;;;;;4987630;28;20531;-62
2021/08/22 00:12:29;;;;;;;9.13;8.37;;;18.40;99.90;;;;;;5006602;28;20502;-61
2021/08/22 00:14:56;;;;;;;11.00;10.10;;;18.40;99.90;;;;;;5009286;28;20757;-61
2021/08/22 00:17:23;;;;;;;10.80;9.90;;;18.30;99.90;;;;;;4990432;28;20432;-61
2021/08/22 00:19:50;;;;;;;11.23;10.23;;;18.30;99.90;;;;;;5001495;28;20455;-60
2021/08/22 00:22:17;;;;;;;11.83;10.73;;;18.30;99.90;;;;;;4993633;28;20417;-61
2021/08/22 00:24:44;;;;;;;10.50;9.50;;;18.30;99.90;;;;;;5006266;28;20466;-61
2021/08/22 00:27:11;;;;;;;13.73;9.30;;;18.20;99.90;;;;;;5005405;28;20453;-61
2021/08/22 00:29:39;;;;;;;12.60;9.50;;;18.20;99.90;;;;;;5017909;28;20417;-61
2021/08/22 00:32:06;;;;;;;11.00;10.00;;;18.20;99.90;;;;;;5007014;28;20474;-61
2021/08/22 00:34:33;;;;;;;14.03;10.73;;;18.10;99.90;;;;;;4994128;28;20451;-61
2021/08/22 00:37:00;;;;;;;11.50;9.67;;;18.10;99.90;;;;;;4979765;28;20483;-61
2021/08/22 00:39:28;;;;;;;11.00;10.10;;;18.10;99.90;;;;;;4981317;28;20444;-61
2021/08/22 00:41:56;;;;;;;12.67;11.47;;;18.00;99.90;;;;;;4999237;28;20414;-60
2021/08/22 00:44:23;;;;;;;10.83;9.87;;;18.00;99.90;;;;;;4998640;28;20489;-61
2021/08/22 00:46:52;;;;;;;10.73;9.73;;;18.00;99.90;;;;;;4991632;28;20447;-60
2021/08/22 00:49:27;;;;;;;11.57;10.63;;;18.00;99.90;;;;;;4991349;28;20484;-60
2021/08/22 00:51:54;;;;;;;11.30;10.10;;;18.00;99.90;;;;;;4994244;28;20450;-62
2021/08/22 00:54:22;;;;;;;14.97;9.83;;;18.10;99.90;;;;;;4995578;28;20413;-61
2021/08/22 00:56:53;;;;;;;9.70;8.87;;;18.10;99.90;;;;;;5034904;28;20740;-61
2021/08/22 00:59:22;;;;;;;10.00;9.00;;;18.00;99.90;;;;;;4998583;28;20627;-61
2021/08/22 01:01:51;;;;;;;12.30;10.87;;;17.90;99.90;;;;;;4991914;28;20442;-61
2021/08/22 01:04:23;;;;;;;10.20;9.17;;;17.90;99.90;;;;;;4990698;28;20623;-61
2021/08/22 01:07:11;;;;;;;10.10;9.27;;;18.00;99.90;;;;;;4979748;28;20454;-61
2021/08/22 01:09:43;;;;;;;10.70;9.70;;;17.90;99.90;;;;;;4987923;28;20468;-61
2021/08/22 01:12:36;;;;;;;11.83;10.73;;;17.80;99.90;;;;;;4987690;28;20461;-61
2021/08/22 01:15:09;;;;;;;13.10;10.10;;;17.60;99.90;;;;;;4991690;28;20732;-62
2021/08/22 01:17:41;;;;;;;10.67;9.70;;;17.60;99.90;;;;;;4985012;28;20417;-62
2021/08/22 01:20:09;;;;;;;10.40;9.40;;;17.60;99.90;;;;;;4998939;28;20425;-60
2021/08/22 01:22:39;;;;;;;10.73;9.77;;;17.70;99.90;;;;;;4997197;28;20504;-61
2021/08/22 01:25:11;;;;;;;10.50;9.60;;;17.70;99.90;;;;;;4998201;28;20442;-61
2021/08/22 01:27:40;;;;;;;11.20;10.07;;;17.80;99.90;;;;;;4996429;28;20769;-61
2021/08/22 01:30:14;;;;;;;12.13;10.93;;;17.80;99.90;;;;;;4997858;28;20815;-60
2021/08/22 01:32:45;;;;;;;10.93;9.93;;;17.90;99.90;;;;;;4996638;28;20837;-61
2021/08/22 01:35:17;;;;;;;12.17;10.90;;;18.00;99.90;;;;;;4997302;28;20416;-61
2021/08/22 01:37:46;;;;;;;9.80;9.00;;;18.00;99.90;;;;;;4997221;28;20442;-61
2021/08/22 01:40:17;;;;;;;13.33;11.50;;;17.90;99.90;;;;;;4987264;28;20516;-61
2021/08/22 01:42:46;;;;;;;12.87;11.57;;;17.90;99.90;;;;;;4991681;28;21015;-61
2021/08/22 01:45:16;;;;;;;12.13;10.93;;;17.80;99.90;;;;;;4996691;28;20422;-61
2021/08/22 01:47:50;;;;;;;11.90;10.70;;;17.70;99.90;;;;;;4979340;28;20453;-62
2021/08/22 01:50:19;;;;;;;11.70;10.47;;;17.60;99.90;;;;;;4981194;28;20603;-61
2021/08/22 01:52:54;;;;;;;10.63;9.60;;;17.60;99.90;;;;;;4985549;28;20442;-60
2021/08/22 01:55:22;;;;;;;13.00;11.90;;;17.60;99.90;;;;;;4990595;28;20422;-62
2021/08/22 01:57:49;;;;;;;11.00;10.10;;;17.50;99.90;;;;;;4990582;28;20535;-61
2021/08/22 02:00:16;;;;;;;15.40;11.43;;;17.50;99.90;;;;;;4996808;28;20668;-61
2021/08/22 02:02:59;;;;;;;10.70;9.70;;;17.50;99.90;;;;;;4985603;28;20471;-61
2021/08/22 02:05:28;;;;;;;13.30;11.90;;;17.50;99.90;;;;;;4983709;28;20448;-60
2021/08/22 02:07:56;;;;;;;12.73;11.43;;;17.50;99.90;;;;;;5009421;28;20467;-62
2021/08/22 02:10:31;;;;;;;12.93;11.63;;;17.40;99.90;;;;;;4997499;28;20447;-61
2021/08/22 02:13:03;;;;;;;10.87;9.93;;;17.40;99.90;;;;;;5005745;28;20413;-62
2021/08/22 02:15:33;;;;;;;11.53;10.53;;;17.40;99.90;;;;;;4997444;28;20444;-62
2021/08/22 02:18:06;;;;;;;15.10;11.47;;;17.40;99.90;;;;;;4998127;28;20467;-62
2021/08/22 02:20:36;;;;;;;14.77;11.80;;;17.40;99.90;;;;;;4991422;28;20443;-62
2021/08/22 02:23:03;;;;;;;13.40;12.10;;;17.30;99.90;;;;;;4988207;28;20963;-61
2021/08/22 02:25:31;;;;;;;13.17;11.87;;;17.20;99.90;;;;;;4996373;28;20815;-61
2021/08/22 02:28:00;;;;;;;13.93;12.57;;;17.20;99.90;;;;;;4997098;28;20641;-60
2021/08/22 02:30:33;;;;;;;12.67;11.40;;;17.10;99.90;;;;;;4982496;28;20562;-61
2021/08/22 02:33:00;;;;;;;14.60;11.67;;;17.10;99.90;;;;;;4996826;28;20430;-61
2021/08/22 02:35:27;;;;;;;12.57;11.40;;;17.00;99.90;;;;;;4994879;28;20439;-61
2021/08/22 02:37:54;;;;;;;12.47;11.27;;;16.90;99.90;;;;;;4990330;28;20407;-61
2021/08/22 02:40:21;;;;;;;13.27;11.87;;;17.00;99.90;;;;;;4989707;28;21002;-61
2021/08/22 02:42:49;;;;;;;14.40;13.00;;;17.00;99.90;;;;;;4996303;28;20446;-63
2021/08/22 02:45:17;;;;;;;12.90;11.77;;;17.10;99.90;;;;;;4996271;28;20422;-61
2021/08/22 02:47:44;;;;;;;17.73;12.77;;;17.00;99.90;;;;;;5010006;28;20475;-61
2021/08/22 02:50:11;;;;;;;12.67;11.40;;;16.90;99.90;;;;;;4986421;28;20497;-62
2021/08/22 02:52:38;;;;;;;13.40;12.20;;;17.10;99.90;;;;;;4978846;28;20487;-62
2021/08/22 02:55:06;;;;;;;10.90;9.80;;;17.20;99.90;;;;;;4989696;28;20417;-61
2021/08/22 02:57:33;;;;;;;13.47;12.17;;;17.10;99.90;;;;;;4990169;28;20443;-60
2021/08/22 03:00:00;;;;;;;12.73;11.53;;;17.20;99.90;;;;;;5004549;28;20437;-60
2021/08/22 03:02:27;;;;;;;14.13;12.67;;;17.10;99.90;;;;;;4977115;28;21025;-60
2021/08/22 03:04:54;;;;;;;12.10;10.90;;;17.10;99.90;;;;;;4994189;28;20419;-63
2021/08/22 03:07:21;;;;;;;13.03;11.70;;;17.00;99.90;;;;;;4986561;28;20470;-62
2021/08/22 03:09:48;;;;;;;14.30;12.80;;;16.80;99.90;;;;;;5006202;28;20493;-61
2021/08/22 03:12:15;;;;;;;13.77;12.47;;;16.60;99.90;;;;;;4995750;28;20455;-62
2021/08/22 03:14:42;;;;;;;14.60;12.97;;;16.60;99.90;;;;;;4983921;28;20479;-61
2021/08/22 03:17:09;;;;;;;13.17;12.00;;;16.60;99.90;;;;;;5008162;28;20450;-61
2021/08/22 03:19:36;;;;;;;13.57;12.33;;;16.60;99.90;;;;;;5007817;28;20654;-61
2021/08/22 03:22:03;;;;;;;14.73;13.23;;;16.60;99.90;;;;;;5008866;28;20442;-61
2021/08/22 03:24:30;;;;;;;13.33;12.13;;;16.70;99.90;;;;;;4996214;28;20496;-61
2021/08/22 03:26:57;;;;;;;13.93;12.53;;;16.50;99.90;;;;;;4995849;28;20412;-61
2021/08/22 03:29:24;;;;;;;15.03;13.47;;;16.50;99.90;;;;;;4996105;28;20482;-61
2021/08/22 03:31:52;;;;;;;13.43;12.03;;;16.30;99.90;;;;;;4983515;28;20470;-61
2021/08/22 03:34:19;;;;;;;13.27;12.07;;;16.30;99.90;;;;;;4996173;28;20439;-61
2021/08/22 03:36:46;;;;;;;14.00;12.63;;;16.30;99.90;;;;;;4984057;28;20463;-62
2021/08/22 03:39:12;;;;;;;13.30;11.90;;;16.30;99.90;;;;;;5008412;28;20452;-62
2021/08/22 03:41:40;;;;;;;16.13;13.30;;;16.30;99.90;;;;;;4996054;28;20523;-62
2021/08/22 03:44:08;;;;;;;15.57;13.33;;;16.30;99.90;;;;;;5008425;28;20485;-60
2021/08/22 03:46:36;;;;;;;14.60;12.50;;;16.50;99.90;;;;;;4998804;28;20441;-61
2021/08/22 03:49:02;;;;;;;14.27;12.77;;;16.50;99.90;;;;;;4999796;28;20477;-61
2021/08/22 03:51:30;;;;;;;15.60;12.67;;;16.50;99.90;;;;;;5007635;28;20414;-61
2021/08/22 03:53:57;;;;;;;14.33;12.97;;;16.50;99.90;;;;;;5002784;28;20807;-61
2021/08/22 03:56:24;;;;;;;13.90;12.50;;;16.50;99.90;;;;;;5001288;28;20444;-60
2021/08/22 03:58:51;;;;;;;15.63;13.73;;;16.40;99.90;;;;;;4996767;28;20464;-61
2021/08/22 04:01:18;;;;;;;13.87;12.43;;;16.40;99.90;;;;;;4987077;28;20519;-62
2021/08/22 04:03:45;;;;;;;14.03;12.80;;;16.30;99.90;;;;;;4991618;28;20440;-61
2021/08/22 04:06:12;;;;;;;14.57;13.07;;;16.20;99.90;;;;;;4997248;28;20536;-61
2021/08/22 04:08:40;;;;;;;13.97;11.20;;;16.10;99.90;;;;;;5016491;28;20903;-60
2021/08/22 04:11:08;;;;;;;15.00;13.50;;;16.10;99.90;;;;;;5014237;28;20415;-62
2021/08/22 04:13:35;;;;;;;13.93;12.43;;;16.20;99.90;;;;;;4996293;28;20578;-61
2021/08/22 04:16:02;;;;;;;12.30;11.00;;;16.20;99.90;;;;;;4991752;28;20437;-61
2021/08/22 04:18:30;;;;;;;15.50;13.23;;;16.20;99.90;;;;;;5011171;28;20425;-61
2021/08/22 04:20:57;;;;;;;13.50;12.20;;;16.20;99.90;;;;;;4999379;28;20209;-61
2021/08/22 04:23:24;;;;;;;13.43;12.13;;;16.30;99.90;;;;;;5009825;28;20416;-62
2021/08/22 04:25:53;;;;;;;15.03;13.20;;;16.40;99.90;;;;;;4999259;28;20463;-61
2021/08/22 04:28:20;;;;;;;12.17;11.07;;;16.50;99.90;;;;;;5010561;28;20495;-61
2021/08/22 04:30:48;;;;;;;18.37;13.00;;;16.60;99.90;;;;;;5004600;28;20438;-60
2021/08/22 04:33:15;;;;;;;18.37;13.13;;;16.70;99.90;;;;;;4993460;28;20492;-61
2021/08/22 04:35:42;;;;;;;12.50;11.33;;;16.80;99.90;;;;;;5014869;28;20416;-61
2021/08/22 04:38:09;;;;;;;14.17;11.70;;;16.90;99.90;;;;;;5006942;28;20421;-61
2021/08/22 04:40:39;;;;;;;17.20;11.70;;;17.30;99.90;;;;;;4998668;28;20457;-61
2021/08/22 04:43:06;;;;;;;14.47;13.03;;;17.40;99.90;;;;;;4999138;28;20443;-61
2021/08/22 04:45:33;;;;;;;13.70;12.37;;;17.40;99.90;;;;;;4998100;28;20508;-62
2021/08/22 04:48:00;;;;;;;13.33;11.60;;;17.50;99.90;;;;;;5006183;28;20420;-60
2021/08/22 04:50:28;;;;;;;11.60;10.40;;;17.50;99.90;;;;;;5015124;28;20981;-60
2021/08/22 04:52:55;;;;;;;12.30;11.10;;;17.50;99.90;;;;;;4992078;28;20805;-62
2021/08/22 04:55:22;;;;;;;11.13;10.13;;;17.60;99.90;;;;;;4994963;28;20417;-62
2021/08/22 04:57:49;;;;;;;12.10;11.10;;;17.90;99.90;;;;;;4993445;28;20452;-62
2021/08/22 05:00:16;;;;;;;12.30;11.10;;;17.70;99.90;;;;;;5005019;28;20802;-61
2021/08/22 05:02:44;;;;;;;12.70;11.40;;;17.80;99.90;;;;;;5003947;28;20604;-61
2021/08/22 05:05:11;;;;;;;12.10;10.90;;;18.00;99.90;;;;;;4992439;28;20736;-61
2021/08/22 05:07:38;;;;;;;11.27;10.07;;;17.90;99.90;;;;;;5010200;28;20457;-62
2021/08/22 05:10:06;;;;;;;11.53;10.40;;;17.90;99.90;;;;;;5001018;28;20769;-61
2021/08/22 05:12:33;;;;;;;11.67;10.70;;;18.00;99.90;;;;;;4996125;28;20415;-60
2021/08/22 05:15:00;;;;;;;11.60;10.60;;;18.10;99.90;;;;;;4985673;28;20796;-60
2021/08/22 05:17:27;;;;;;;16.80;11.53;;;18.20;99.90;;;;;;5005849;28;20409;-62
2021/08/22 05:19:54;;;;;;;11.80;10.60;;;18.10;99.90;;;;;;5014064;28;20597;-62
2021/08/22 05:22:21;;;;;;;10.47;9.40;;;18.20;99.90;;;;;;5003959;28;20412;-61
2021/08/22 05:24:48;;;;;;;12.23;10.00;;;18.70;99.90;;;;;;4992156;28;20417;-62
2021/08/22 05:27:15;;;;;;;16.30;10.30;;;18.80;99.90;;;;;;5000729;28;20463;-60
2021/08/22 05:29:42;;;;;;;10.57;9.70;;;18.80;99.90;;;;;;5005434;28;20549;-62
2021/08/22 05:32:09;;;;;;;9.50;8.60;;;19.20;99.90;;;;;;5012670;28;20618;-61
2021/08/22 05:34:36;;;;;;;8.80;8.00;;;19.60;99.90;;;;;;5006929;28;20497;-61
2021/08/22 05:37:03;;;;;;;10.20;9.07;;;19.50;99.90;;;;;;4984893;28;20422;-62
2021/08/22 05:39:30;;;;;;;11.13;8.63;;;19.60;99.90;;;;;;5005041;28;20495;-61
2021/08/22 05:41:57;;;;;;;9.73;8.83;;;19.60;99.90;;;;;;5002332;28;20524;-61
2021/08/22 05:44:24;;;;;;;9.30;8.30;;;19.50;99.90;;;;;;4990850;28;20413;-61
2021/08/22 05:46:51;;;;;;;9.73;8.83;;;19.60;99.90;;;;;;4992012;28;20414;-62
2021/08/22 05:49:19;;;;;;;8.33;7.60;;;19.70;99.90;;;;;;5008877;28;20449;-62
2021/08/22 05:51:46;;;;;;;11.50;8.27;;;19.60;99.90;;;;;;4997088;28;20836;-60
2021/08/22 05:54:13;;;;;;;10.00;8.10;;;19.70;99.90;;;;;;5009165;28;20417;-60
2021/08/22 05:56:40;;;;;;;9.20;8.30;;;19.70;99.90;;;;;;4997271;28;20466;-61
2021/08/22 05:59:07;;;;;;;9.10;8.20;;;19.80;99.90;;;;;;4997148;28;20689;-61
2021/08/22 06:01:35;;;;;;;8.83;8.00;;;19.80;99.90;;;;;;4983174;28;20440;-61
2021/08/22 06:04:02;;;;;;;9.33;8.40;;;19.80;99.90;;;;;;4987558;28;20490;-61
2021/08/22 06:06:29;;;;;;;8.43;7.70;;;19.80;99.90;;;;;;4990970;28;20632;-62
2021/08/22 06:08:56;;;;;;;9.10;8.30;;;20.00;99.90;;;;;;4978227;28;20485;-62
2021/08/22 06:11:23;;;;;;;14.63;10.30;;;20.00;99.90;;;;;;5006132;28;20414;-61
2021/08/22 06:13:50;;;;;;;9.37;8.13;;;20.20;99.90;;;;;;4997049;28;20406;-61
2021/08/22 06:16:17;;;;;;;9.73;8.83;;;20.80;99.90;;;;;;5009174;28;20452;-60
2021/08/22 06:18:44;;;;;;;8.83;8.00;;;21.30;99.90;;;;;;5002446;28;20409;-61
2021/08/22 06:21:11;;;;;;;10.03;9.10;;;21.90;99.90;;;;;;5004024;28;20757;-60
2021/08/22 06:23:38;;;;;;;10.27;8.60;;;22.00;99.90;;;;;;4997119;28;20417;-62
2021/08/22 06:26:05;;;;;;;7.40;6.73;;;22.30;99.90;;;;;;5006404;28;20441;-61
2021/08/22 06:28:32;;;;;;;10.13;8.37;;;23.10;99.90;;;;;;5011825;28;20442;-61
2021/08/22 06:30:59;;;;;;;9.77;8.97;;;23.30;99.90;;;;;;4990440;28;20638;-62
2021/08/22 06:33:26;;;;;;;9.03;8.23;;;23.40;99.90;;;;;;5005014;28;20588;-61
2021/08/22 06:35:59;;;;;;;8.60;7.90;;;23.50;99.90;;;;;;4996102;28;20480;-60
2021/08/22 06:38:26;;;;;;;7.67;7.07;;;23.20;99.90;;;;;;4984922;28;20497;-60
2021/08/22 06:40:54;;;;;;;8.00;7.40;;;23.40;99.90;;;;;;4989303;28;20439;-62
2021/08/22 06:43:21;;;;;;;9.03;8.23;;;24.30;99.90;;;;;;5002830;28;20742;-61
2021/08/22 06:45:48;;;;;;;8.07;7.37;;;25.00;99.90;;;;;;5028079;28;20770;-60
2021/08/22 06:48:15;;;;;;;8.27;7.67;;;25.40;99.90;;;;;;4986501;28;20496;-61
2021/08/22 06:50:43;;;;;;;8.60;7.80;;;25.00;99.90;;;;;;4993263;28;20637;-61
2021/08/22 06:53:10;;;;;;;7.93;7.20;;;25.00;99.90;;;;;;4996353;28;20460;-61
2021/08/22 06:55:37;;;;;;;11.40;7.33;;;24.80;99.90;;;;;;4996947;28;20661;-61
2021/08/22 06:58:04;;;;;;;7.33;6.73;;;25.20;99.90;;;;;;4997278;28;20486;-60
2021/08/22 07:00:31;;;;;;;8.40;7.60;;;25.20;99.90;;;;;;4997305;28;20497;-60
2021/08/22 07:02:58;;;;;;;7.30;6.70;;;25.80;99.90;;;;;;4996888;28;20528;-61
2021/08/22 07:05:26;;;;;;;8.10;7.40;;;26.30;99.90;;;;;;4988461;28;20660;-60
2021/08/22 07:07:54;;;;;;;7.10;6.60;;;27.60;98.50;;;;;;4978024;28;20474;-61
2021/08/22 07:10:21;;;;;;;8.50;7.87;;;28.60;95.50;;;;;;4984175;28;20479;-62
2021/08/22 07:12:48;;;;;;;7.87;7.17;;;29.10;94.00;;;;;;4997735;28;20769;-61
2021/08/22 07:15:15;;;;;;;8.77;7.87;;;30.60;92.10;;;;;;4985940;28;20823;-61
2021/08/22 07:17:42;;;;;;;7.80;7.30;;;31.70;86.20;;;;;;4980317;28;20437;-61
2021/08/22 07:20:10;;;;;;;8.40;7.90;;;32.60;81.50;;;;;;4980837;28;20619;-61
2021/08/22 07:22:37;;;;;;;8.30;7.80;;;33.30;77.30;;;;;;4982892;28;20449;-59
2021/08/22 07:25:05;;;;;;;8.60;8.10;;;32.40;76.70;;;;;;4983778;28;20436;-61
2021/08/22 07:27:32;;;;;;;8.57;8.07;;;31.60;79.10;;;;;;4984364;28;20470;-61
2021/08/22 07:30:00;;;;;;;7.43;7.03;;;32.20;78.40;;;;;;4983519;28;20966;-59
2021/08/22 07:32:26;;;;;;;8.70;8.20;;;31.90;77.60;;;;;;4983044;28;20462;-62
2021/08/22 07:34:53;;;;;;;9.70;8.90;;;32.60;77.40;;;;;;4983247;28;20466;-60
2021/08/22 07:37:20;;;;;;;10.83;9.83;;;32.90;74.30;;;;;;4983634;28;20928;-62
2021/08/22 07:39:48;;;;;;;9.37;8.87;;;34.10;72.50;;;;;;4982274;28;20506;-61
2021/08/22 07:42:15;;;;;;;9.47;8.87;;;34.30;72.30;;;;;;4981787;28;20442;-62
2021/08/22 07:44:42;;;;;;;10.57;10.03;;;34.90;68.10;;;;;;4994354;28;20443;-62
2021/08/22 07:47:09;;;;;;;9.87;9.23;;;35.70;66.20;;;;;;5011582;28;20602;-60
2021/08/22 07:49:36;;;;;;;9.80;9.30;;;35.50;65.50;;;;;;5002686;28;20479;-61
2021/08/22 07:52:03;;;;;;;10.30;9.70;;;35.50;64.30;;;;;;5008120;28;20439;-60
2021/08/22 07:54:31;;;;;;;10.93;10.37;;;35.80;64.70;;;;;;5008187;28;20585;-61
2021/08/22 07:56:59;;;;;;;10.10;9.60;;;36.00;63.10;;;;;;5000630;28;20498;-60
2021/08/22 07:59:26;;;;;;;9.83;9.33;;;35.80;63.60;;;;;;4986635;28;20502;-61
2021/08/22 08:01:53;;;;;;;11.20;10.40;;;36.20;60.80;;;;;;5013358;28;20733;-61
2021/08/22 08:04:20;;;;;;;9.57;9.07;;;37.40;58.20;;;;;;5013115;28;20435;-61
2021/08/22 08:06:47;;;;;;;10.20;9.60;;;37.80;58.20;;;;;;4986601;28;20483;-62
2021/08/22 08:09:15;;;;;;;10.93;10.33;;;36.00;58.80;;;;;;4999652;28;20431;-62
2021/08/22 08:11:42;;;;;;;9.90;9.40;;;34.00;62.80;;;;;;4989977;28;20442;-64
2021/08/22 08:14:09;;;;;;;8.60;8.20;;;32.10;67.70;;;;;;5007628;28;20822;-62
2021/08/22 08:16:36;;;;;;;9.20;8.60;;;30.90;72.00;;;;;;5012495;28;20442;-61
2021/08/22 08:19:03;;;;;;;10.30;9.70;;;30.90;73.30;;;;;;5003573;28;20505;-62
2021/08/22 08:21:30;;;;;;;9.67;9.03;;;31.00;72.40;;;;;;4981969;28;20448;-60
2021/08/22 08:23:57;;;;;;;8.73;8.13;;;30.60;74.90;;;;;;4986531;28;20488;-62
2021/08/22 08:26:24;;;;;;;9.40;8.60;;;31.60;71.90;;;;;;5010427;28;20444;-61
2021/08/22 08:28:52;;;;;;;9.37;8.77;;;32.10;70.70;;;;;;4993990;28;20813;-60
2021/08/22 08:31:20;;;;;;;9.97;9.40;;;33.00;70.20;;;;;;5008286;28;20505;-60
2021/08/22 08:33:49;;;;;;;10.30;9.70;;;33.90;65.40;;;;;;4984277;28;20475;-62
2021/08/22 08:36:16;;;;;;;9.00;8.50;;;35.10;64.90;;;;;;4994208;28;20810;-61
2021/08/22 08:38:43;;;;;;;9.90;9.30;;;34.70;64.10;;;;;;4999673;28;20633;-62
2021/08/22 08:41:10;;;;;;;9.33;8.73;;;35.50;63.20;;;;;;5003120;28;20448;-62
2021/08/22 08:43:38;;;;;;;8.40;8.00;;;35.20;62.30;;;;;;5007423;28;20512;-61
2021/08/22 08:46:09;;;;;;;9.10;8.70;;;34.60;62.80;;;;;;5002725;28;20766;-62
2021/08/22 08:48:41;;;;;;;8.53;8.13;;;34.30;63.00;;;;;;4982863;28;20436;-62
2021/08/22 08:51:15;;;;;;;9.23;8.77;;;34.70;62.10;;;;;;4999250;28;20685;-62
2021/08/22 08:53:45;;;;;;;9.77;9.27;;;36.30;59.10;;;;;;4994806;28;20489;-61
2021/08/22 08:56:20;;;;;;;9.10;8.53;;;36.40;58.90;;;;;;4989847;28;20505;-64
2021/08/22 08:58:47;;;;;;;10.03;9.43;;;36.50;57.50;;;;;;5015754;28;20438;-62
2021/08/22 09:01:14;;;;;;;9.13;8.70;;;36.50;57.90;;;;;;5009282;28;20475;-62
2021/08/22 09:04:10;;;;;;;11.70;8.40;;;37.50;57.50;;;;;;4999115;28;20647;-62
2021/08/22 09:07:05;;;;;;;10.20;9.40;;;38.80;54.50;;;;;;4997934;28;20793;-62
2021/08/22 09:10:18;;;;;;;8.90;8.50;;;39.10;53.70;;;;;;4997498;28;20782;-62
2021/08/22 09:12:56;;;;;;;9.10;8.70;;;39.70;51.90;;;;;;5009202;28;20732;-63
2021/08/22 09:16:00;;;;;;;10.17;9.57;;;39.50;51.60;;;;;;4984735;28;20432;-62
2021/08/22 09:18:46;;;;;;;8.80;8.40;;;37.80;53.10;;;;;;4999646;28;20438;-62
2021/08/22 09:21:51;;;;;;;8.30;7.80;;;36.60;53.80;;;;;;5005743;28;20626;-61
2021/08/22 09:24:55;;;;;;;9.10;8.63;;;36.40;54.80;;;;;;5003106;28;20435;-62
2021/08/22 09:27:49;;;;;;;8.10;7.80;;;36.40;54.90;;;;;;5009747;28;20757;-61
2021/08/22 09:30:50;;;;;;;8.30;7.90;;;34.60;56.00;;;;;;5010828;28;20605;-63
2021/08/22 09:33:59;;;;;;;8.10;7.60;;;33.40;58.70;;;;;;4998223;28;20506;-61
2021/08/22 09:36:44;;;;;;;8.93;8.43;;;32.50;59.50;;;;;;4987285;28;20607;-62
2021/08/22 09:39:49;;;;;;;8.80;8.30;;;31.70;63.80;;;;;;4978707;28;20439;-63
2021/08/22 09:42:46;;;;;;;8.73;8.23;;;31.10;67.50;;;;;;4983193;28;20442;-61
2021/08/22 09:45:51;;;;;;;8.50;8.10;;;30.80;67.50;;;;;;4994536;28;20693;-61
2021/08/22 09:48:43;;;;;;;8.97;8.47;;;30.50;67.80;;;;;;4989852;28;20443;-62
2021/08/22 09:51:16;;;;;;;8.53;8.13;;;30.50;69.50;;;;;;4991330;28;20794;-64
2021/08/22 09:54:21;;;;;;;7.70;7.30;;;30.70;68.60;;;;;;4996565;28;20712;-63
2021/08/22 09:57:25;;;;;;;7.33;6.90;;;30.70;67.90;;;;;;4990987;28;20742;-62
2021/08/22 10:00:29;;;;;;;7.23;6.83;;;30.20;67.50;;;;;;4993734;28;20462;-61
2021/08/22 10:02:56;;;;;;;6.83;6.43;;;29.90;69.30;;;;;;4984066;28;20440;-61
2021/08/22 10:05:36;;;;;;;7.40;7.00;;;29.80;70.00;;;;;;4978602;28;20498;-63
2021/08/22 10:08:18;;;;;;;9.37;8.77;;;29.40;72.10;;;;;;4979343;28;21103;-59
2021/08/22 10:10:57;;;;;;;7.00;6.70;;;29.40;73.80;;;;;;4993640;28;20519;-61
2021/08/22 10:13:24;;;;;;;7.30;6.90;;;29.70;72.30;;;;;;4981022;28;20447;-61
2021/08/22 10:15:52;;;;;;;7.57;7.13;;;30.10;72.10;;;;;;4987692;28;20635;-60
2021/08/22 10:18:25;;;;;;;6.33;6.03;;;30.30;71.10;;;;;;5008574;28;20440;-61
2021/08/22 10:21:07;;;;;;;7.10;6.53;;;30.30;70.40;;;;;;4977599;28;20763;-61
2021/08/22 10:23:43;;;;;;;7.20;6.80;;;29.80;71.90;;;;;;4980356;28;20431;-60
2021/08/22 10:26:11;;;;;;;7.13;6.73;;;30.20;71.90;;;;;;4982623;28;20424;-62
2021/08/22 10:29:00;;;;;;;7.90;7.40;;;30.50;71.00;;;;;;4980455;28;20740;-61
2021/08/22 10:31:49;;;;;;;7.60;7.20;;;31.20;69.30;;;;;;4981465;28;20496;-64
2021/08/22 10:34:26;;;;;;;7.03;6.53;;;31.20;68.20;;;;;;5002224;28;20451;-61
2021/08/22 10:36:54;;;;;;;7.40;7.07;;;31.30;67.90;;;;;;4988354;28;20662;-62
2021/08/22 10:39:21;;;;;;;7.03;6.73;;;31.60;66.80;;;;;;4995610;28;20789;-62
2021/08/22 10:41:50;;;;;;;8.47;7.87;;;31.50;66.30;;;;;;4993551;28;20670;-62
2021/08/22 10:44:39;;;;;;;7.60;7.17;;;31.20;67.70;;;;;;4994580;28;20626;-62
2021/08/22 10:47:19;;;;;;;7.53;7.10;;;30.80;69.10;;;;;;4995330;28;20434;-60
2021/08/22 10:49:52;;;;;;;8.23;7.83;;;31.10;69.90;;;;;;4995421;28;20490;-62
2021/08/22 10:52:23;;;;;;;6.40;6.00;;;31.60;67.40;;;;;;4986300;28;20484;-61
2021/08/22 10:55:12;;;;;;;7.17;6.77;;;31.90;65.40;;;;;;4981003;28;20435;-61
2021/08/22 10:57:44;;;;;;;7.80;7.20;;;32.00;66.60;;;;;;4977990;28;20437;-64
2021/08/22 11:00:28;;;;;;;7.13;6.73;;;31.50;66.20;;;;;;4977842;28;20437;-61
2021/08/22 11:03:01;;;;;;;6.17;5.87;;;31.20;68.40;;;;;;4982742;28;20809;-60
2021/08/22 11:05:30;;;;;;;7.07;6.77;;;31.20;68.50;;;;;;4980231;28;20466;-60
2021/08/22 11:08:18;;;;;;;7.07;6.60;;;31.20;70.50;;;;;;4979665;28;20489;-61
2021/08/22 11:11:01;;;;;;;6.70;6.30;;;31.00;69.40;;;;;;4978046;28;20474;-60
2021/08/22 11:13:30;;;;;;;7.50;7.10;;;31.00;71.00;;;;;;4978936;28;20433;-62
2021/08/22 11:16:05;;;;;;;6.63;6.23;;;30.70;69.30;;;;;;4978393;28;20437;-61
2021/08/22 11:18:34;;;;;;;7.13;6.80;;;30.20;71.40;;;;;;4981207;28;20759;-62
2021/08/22 11:21:02;;;;;;;7.37;6.97;;;29.90;72.20;;;;;;4979364;28;20449;-62
2021/08/22 11:23:29;;;;;;;7.47;6.97;;;29.80;73.60;;;;;;4980061;28;20983;-61
2021/08/22 11:26:10;;;;;;;9.07;8.30;;;30.10;73.80;;;;;;4978984;28;20440;-61
2021/08/22 11:28:37;;;;;;;7.10;6.80;;;30.60;72.70;;;;;;4984227;28;20427;-61
2021/08/22 11:31:12;;;;;;;8.10;7.60;;;30.70;69.00;;;;;;4979986;28;20487;-61
2021/08/22 11:33:40;;;;;;;7.03;6.63;;;30.60;71.10;;;;;;4981255;28;20698;-61
2021/08/22 11:36:08;;;;;;;7.07;6.70;;;30.10;69.20;;;;;;4980042;28;20443;-61
2021/08/22 11:38:35;;;;;;;6.97;6.60;;;29.90;70.50;;;;;;4982586;28;20859;-61
2021/08/22 11:41:03;;;;;;;7.33;7.03;;;29.90;71.70;;;;;;4993684;28;21087;-61
2021/08/22 11:43:32;;;;;;;6.63;6.30;;;30.00;71.70;;;;;;4978122;28;20496;-61
2021/08/22 11:45:59;;;;;;;7.23;6.83;;;30.20;71.40;;;;;;4977689;28;20511;-61
2021/08/22 11:48:26;;;;;;;6.33;6.03;;;30.30;70.90;;;;;;4979930;28;20441;-61
2021/08/22 11:51:01;;;;;;;6.40;6.00;;;30.20;71.30;;;;;;4979658;28;20473;-61
2021/08/22 11:53:29;;;;;;;6.80;6.40;;;29.70;71.50;;;;;;4978092;28;20487;-60
2021/08/22 11:55:57;;;;;;;6.67;6.20;;;29.80;72.40;;;;;;4983083;28;20495;-60
2021/08/22 11:58:24;;;;;;;6.87;6.57;;;29.90;71.40;;;;;;4980528;28;20794;-62
2021/08/22 12:00:56;;;;;;;7.07;6.70;;;29.90;72.90;;;;;;4978397;28;20487;-61
2021/08/22 12:03:25;;;;;;;7.03;6.53;;;29.70;71.90;;;;;;4999775;28;20638;-60
2021/08/22 12:05:59;;;;;;;6.33;6.03;;;30.10;72.90;;;;;;5007172;28;20498;-60
2021/08/22 12:08:28;;;;;;;8.00;7.50;;;30.30;70.90;;;;;;5010634;28;20626;-60
2021/08/22 12:11:13;;;;;;;8.83;8.33;;;30.20;71.60;;;;;;5015124;28;20477;-61
2021/08/22 12:13:42;;;;;;;7.20;6.90;;;29.90;71.90;;;;;;5002590;28;20483;-61
2021/08/22 12:16:22;;;;;;;6.63;6.33;;;29.60;71.80;;;;;;5009168;28;20670;-61
2021/08/22 12:18:50;;;;;;;10.03;9.43;;;29.40;73.30;;;;;;5017274;28;20430;-60
2021/08/22 12:21:21;;;;;;;7.57;7.10;;;29.70;76.40;;;;;;5004146;28;20444;-61
2021/08/22 12:23:50;;;;;;;7.93;7.23;;;29.80;87.90;;;;;;4982647;28;20591;-65
2021/08/22 12:26:31;;;;;;;6.43;6.03;;;29.50;91.60;;;;;;4980935;28;20444;-66
2021/08/22 12:29:08;;;;;;;6.33;5.83;;;28.90;93.30;;;;;;4981106;28;20495;-64
2021/08/22 12:31:37;;;;;;;5.93;5.53;;;28.30;96.90;;;;;;4978667;28;20468;-65
2021/08/22 12:34:16;;;;;;;6.77;6.37;;;27.90;96.30;;;;;;4980308;28;20851;-66
2021/08/22 12:36:45;;;;;;;5.07;4.70;;;27.70;98.50;;;;;;4996151;28;20515;-65
2021/08/22 12:39:14;;;;;;;6.60;6.20;;;27.50;99.40;;;;;;4978817;28;20502;-66
2021/08/22 12:41:46;;;;;;;5.77;5.37;;;27.30;99.30;;;;;;4981169;28;20418;-65
2021/08/22 12:44:23;;;;;;;5.77;5.37;;;27.20;99.90;;;;;;4980782;28;20808;-66
2021/08/22 12:46:55;;;;;;;6.93;6.43;;;27.30;99.90;;;;;;4993730;28;20433;-66
2021/08/22 12:49:23;;;;;;;5.83;5.30;;;27.20;99.90;;;;;;4981346;28;20436;-69
2021/08/22 12:51:58;;;;;;;5.47;5.07;;;26.50;99.90;;;;;;4982051;28;20491;-70
2021/08/22 12:54:27;;;;;;;5.20;4.83;;;25.80;99.90;;;;;;4980467;28;20425;-68
2021/08/22 12:56:55;;;;;;;5.30;4.80;;;25.10;99.90;;;;;;4979821;28;20535;-69